Festivo — EAEQ — position and weather

sailwx.info

Track history (hours):
 
Tides and Currents Weather Stations Pressure Air Temp Water Temp Dewpoint Dewpoint Depression Visibility Wind Speed Wind Dir Waves Ship Positions

Festivo

Last reported at 2017-Jun-22 10:25 UTC. Time now 2017-Jun-23 22:11 UTC.
Position N 35°58' W 005°13'.

Length 136 m; draft 4.5 m.

Type: Cargo ship. MMSI: 225410000.

Date/timePositionNaut miles runAvg speedWind from/ knotsBaromVisibWave heightAir tempDewpointWater temp
2017-Jun-22 10:25N 35°58' W 005°13'511.7
2017-Jun-22 10:00N 35°55' W 005°18'2 3.0
2017-Jun-22 09:30N 35°54' W 005°19'0 0.0
2017-Jun-22 09:00N 35°54' W 005°19'0 0.0
2017-Jun-22 08:30N 35°54' W 005°19'0 0.0
2017-Jun-22 08:00N 35°54' W 005°19'0 0.0
2017-Jun-22 07:30N 35°54' W 005°19'0 0.0
2017-Jun-22 07:00N 35°54' W 005°19'1 1.3
2017-Jun-22 06:31N 35°54' W 005°19'5 9.3
2017-Jun-22 06:01N 35°57' W 005°14'  
2017-Jun-18 09:49N 36°00' W 005°13'311.6
2017-Jun-18 09:31N 35°58' W 005°16'5 9.1
2017-Jun-18 09:01N 35°54' W 005°19'0 0.4
2017-Jun-18 08:30N 35°54' W 005°19'0 0.0
2017-Jun-18 08:00N 35°54' W 005°19'0 0.0
2017-Jun-18 07:27N 35°54' W 005°19'0 0.0
2017-Jun-18 07:00N 35°54' W 005°19'0 0.0
2017-Jun-18 06:30N 35°54' W 005°19'0 0.0
2017-Jun-18 06:00N 35°54' W 005°19'1 1.3
2017-Jun-18 05:31N 35°54' W 005°19'3 6.7
2017-Jun-18 05:00N 35°55' W 005°15'4 7.7
2017-Jun-18 04:30N 35°55' W 005°10'4 7.3
2017-Jun-18 04:00N 35°54' W 005°06'4 7.3
2017-Jun-18 03:30N 35°53' W 005°02'  
2017-Jun-13 08:56N 35°58' W 005°13'410.6
2017-Jun-13 08:30N 35°55' W 005°17'2 3.8
2017-Jun-13 07:58N 35°54' W 005°19'0 0.0
2017-Jun-13 07:25N 35°54' W 005°19'0 0.0
2017-Jun-13 06:58N 35°54' W 005°19'0 0.0
2017-Jun-13 06:28N 35°54' W 005°19'0 0.0
2017-Jun-13 05:55N 35°54' W 005°19'0 0.0
2017-Jun-13 05:28N 35°54' W 005°19'0 0.0
2017-Jun-13 04:58N 35°54' W 005°19'1 1.3
2017-Jun-13 04:31N 35°54' W 005°19'3 6.8
2017-Jun-13 04:01N 35°56' W 005°16'3 6.4
2017-Jun-13 03:31N 35°58' W 005°12'3 6.1
2017-Jun-13 03:01N 35°59' W 005°09'  
Track history (hours):
 
Tides and Currents Weather Stations Pressure Air Temp Water Temp Dewpoint Dewpoint Depression Visibility Wind Speed Wind Dir Waves Ship Positions

Festivo

Last reported at 2017-Jun-22 10:25 UTC. Time now 2017-Jun-23 22:11 UTC.
Position N 35°58' W 005°13'.

Length 136 m; draft 4.5 m.

Type: Cargo ship. MMSI: 225410000.

Date/timePositionNaut miles runAvg speedWind from/ knotsBaromVisibWave heightAir tempDewpointWater temp
2017-Jun-22 10:25N 35°58' W 005°13'511.7
2017-Jun-22 10:00N 35°55' W 005°18'2 3.0
2017-Jun-22 09:30N 35°54' W 005°19'0 0.0
2017-Jun-22 09:00N 35°54' W 005°19'0 0.0
2017-Jun-22 08:30N 35°54' W 005°19'0 0.0
2017-Jun-22 08:00N 35°54' W 005°19'0 0.0
2017-Jun-22 07:30N 35°54' W 005°19'0 0.0
2017-Jun-22 07:00N 35°54' W 005°19'1 1.3
2017-Jun-22 06:31N 35°54' W 005°19'5 9.3
2017-Jun-22 06:01N 35°57' W 005°14'  
2017-Jun-18 09:49N 36°00' W 005°13'311.6
2017-Jun-18 09:31N 35°58' W 005°16'5 9.1
2017-Jun-18 09:01N 35°54' W 005°19'0 0.4
2017-Jun-18 08:30N 35°54' W 005°19'0 0.0
2017-Jun-18 08:00N 35°54' W 005°19'0 0.0
2017-Jun-18 07:27N 35°54' W 005°19'0 0.0
2017-Jun-18 07:00N 35°54' W 005°19'0 0.0
2017-Jun-18 06:30N 35°54' W 005°19'0 0.0
2017-Jun-18 06:00N 35°54' W 005°19'1 1.3
2017-Jun-18 05:31N 35°54' W 005°19'3 6.7
2017-Jun-18 05:00N 35°55' W 005°15'4 7.7
2017-Jun-18 04:30N 35°55' W 005°10'4 7.3
2017-Jun-18 04:00N 35°54' W 005°06'4 7.3
2017-Jun-18 03:30N 35°53' W 005°02'  
2017-Jun-13 08:56N 35°58' W 005°13'410.6
2017-Jun-13 08:30N 35°55' W 005°17'2 3.8
2017-Jun-13 07:58N 35°54' W 005°19'0 0.0
2017-Jun-13 07:25N 35°54' W 005°19'0 0.0
2017-Jun-13 06:58N 35°54' W 005°19'0 0.0
2017-Jun-13 06:28N 35°54' W 005°19'0 0.0
2017-Jun-13 05:55N 35°54' W 005°19'0 0.0
2017-Jun-13 05:28N 35°54' W 005°19'0 0.0
2017-Jun-13 04:58N 35°54' W 005°19'1 1.3
2017-Jun-13 04:31N 35°54' W 005°19'3 6.8
2017-Jun-13 04:01N 35°56' W 005°16'3 6.4
2017-Jun-13 03:31N 35°58' W 005°12'3 6.1
2017-Jun-13 03:01N 35°59' W 005°09'  

Dump ship's entire track history